createdAt,value
2022-12-22T00:00:57.452Z,5.03
2022-12-22T00:03:24.176Z,4.89
2022-12-22T00:05:51.004Z,4.99
2022-12-22T00:08:19.088Z,4.76
2022-12-22T00:10:46.169Z,4.68
2022-12-22T00:13:15.133Z,4.79
2022-12-22T00:15:41.864Z,4.80
2022-12-22T00:18:15.040Z,4.75
2022-12-22T00:20:41.656Z,4.63
2022-12-22T00:23:09.377Z,4.62
2022-12-22T00:25:37.420Z,4.56
2022-12-22T00:28:13.435Z,4.42
2022-12-22T00:30:46.863Z,4.38
2022-12-22T00:33:16.912Z,4.30
2022-12-22T00:35:43.851Z,4.18
2022-12-22T00:38:15.212Z,4.30
2022-12-22T00:40:43.503Z,4.39
2022-12-22T00:43:10.162Z,4.40
2022-12-22T00:45:37.989Z,4.22
2022-12-22T00:48:06.253Z,4.29
2022-12-22T00:50:36.231Z,4.21
2022-12-22T00:53:04.206Z,4.15
2022-12-22T00:55:32.514Z,4.01
2022-12-22T00:58:02.028Z,3.98
2022-12-22T01:00:28.821Z,4.03
2022-12-22T01:02:55.615Z,4.03
2022-12-22T01:05:22.575Z,3.97
2022-12-22T01:07:49.308Z,3.93
2022-12-22T01:10:16.519Z,4.00
2022-12-22T01:12:44.339Z,3.85
2022-12-22T01:15:14.789Z,3.70
2022-12-22T01:17:41.532Z,3.58
2022-12-22T01:20:08.843Z,3.80
2022-12-22T01:22:35.599Z,3.74
2022-12-22T01:25:02.330Z,3.93
2022-12-22T01:27:28.954Z,4.09
2022-12-22T01:29:55.700Z,3.84
2022-12-22T01:32:23.996Z,4.01
2022-12-22T01:34:50.770Z,4.11
2022-12-22T01:37:18.079Z,4.02
2022-12-22T01:39:45.275Z,3.78
2022-12-22T01:42:12.809Z,3.93
2022-12-22T01:44:39.488Z,4.14
2022-12-22T01:47:33.883Z,4.13
2022-12-22T01:50:00.567Z,4.12
2022-12-22T01:52:32.566Z,4.28
2022-12-22T01:55:02.757Z,4.17
2022-12-22T01:57:30.941Z,4.34
2022-12-22T01:59:57.597Z,4.27
2022-12-22T02:02:26.412Z,4.33
2022-12-22T02:04:57.038Z,4.48
2022-12-22T02:07:41.096Z,4.36
2022-12-22T02:10:20.988Z,4.51
2022-12-22T02:12:56.834Z,4.32
2022-12-22T02:15:30.821Z,4.18
2022-12-22T02:18:05.839Z,4.36
2022-12-22T02:20:41.132Z,4.50
2022-12-22T02:23:16.568Z,4.61
2022-12-22T02:25:50.226Z,4.63
2022-12-22T02:28:18.401Z,4.52
2022-12-22T02:30:45.907Z,4.49
2022-12-22T02:33:12.921Z,4.50
2022-12-22T02:35:45.977Z,4.51
2022-12-22T02:38:29.869Z,4.50
2022-12-22T02:41:11.944Z,4.61
2022-12-22T02:43:58.491Z,4.56
2022-12-22T02:46:31.185Z,4.53
2022-12-22T02:49:01.787Z,4.44
2022-12-22T02:51:31.545Z,4.56
2022-12-22T02:53:59.728Z,4.47
2022-12-22T02:56:26.563Z,4.49
2022-12-22T02:58:55.161Z,4.66
2022-12-22T03:01:21.903Z,4.58
2022-12-22T03:03:48.937Z,4.60
2022-12-22T03:06:15.899Z,4.60
2022-12-22T03:08:42.708Z,4.48
2022-12-22T03:11:09.517Z,4.72
2022-12-22T03:13:36.180Z,4.77
2022-12-22T03:16:05.008Z,4.84
2022-12-22T03:18:31.786Z,4.79
2022-12-22T03:20:58.890Z,4.58
2022-12-22T03:23:25.578Z,4.80
2022-12-22T03:25:52.236Z,4.88
2022-12-22T03:28:20.085Z,4.87
2022-12-22T03:30:53.597Z,4.77
2022-12-22T03:33:21.807Z,4.84
2022-12-22T03:35:48.443Z,4.77
2022-12-22T03:38:15.124Z,4.78
2022-12-22T03:40:43.575Z,4.60
2022-12-22T03:43:12.022Z,4.68
2022-12-22T03:45:38.676Z,4.93
2022-12-22T03:48:05.709Z,4.71
2022-12-22T03:50:33.971Z,4.76
2022-12-22T03:53:00.604Z,4.65
2022-12-22T03:55:27.587Z,4.71
2022-12-22T03:57:54.276Z,4.83
2022-12-22T04:00:21.104Z,4.71
2022-12-22T04:02:48.007Z,4.80
2022-12-22T04:05:14.933Z,4.82
2022-12-22T04:07:43.025Z,4.72
2022-12-22T04:10:10.659Z,4.78
2022-12-22T04:12:37.292Z,4.79
2022-12-22T04:15:04.585Z,4.70
2022-12-22T04:17:31.238Z,4.64
2022-12-22T04:19:57.900Z,4.61
2022-12-22T04:22:24.592Z,4.59
2022-12-22T04:24:52.784Z,4.64
2022-12-22T04:27:19.461Z,4.79
2022-12-22T04:29:46.076Z,4.73
2022-12-22T04:32:12.733Z,4.82
2022-12-22T04:34:39.405Z,4.68
2022-12-22T04:37:14.810Z,4.73
2022-12-22T04:39:44.025Z,4.70
2022-12-22T04:42:12.077Z,4.79
2022-12-22T04:44:38.768Z,4.77
2022-12-22T04:47:05.437Z,4.77
2022-12-22T04:49:32.164Z,4.69
2022-12-22T04:51:58.794Z,4.77
2022-12-22T04:54:25.510Z,4.76
2022-12-22T04:56:52.969Z,4.66
2022-12-22T04:59:20.996Z,4.70
2022-12-22T05:01:47.866Z,4.71
2022-12-22T05:04:17.438Z,4.66
2022-12-22T05:06:48.515Z,4.63
2022-12-22T05:09:15.084Z,4.64
2022-12-22T05:11:41.788Z,4.52
2022-12-22T05:14:08.609Z,4.63
2022-12-22T05:16:36.670Z,4.66
2022-12-22T05:19:03.419Z,4.62
2022-12-22T05:21:30.284Z,4.61
2022-12-22T05:23:56.954Z,4.59
2022-12-22T05:26:23.565Z,4.40
2022-12-22T05:28:50.401Z,4.53
2022-12-22T05:31:19.674Z,4.51
2022-12-22T05:33:48.210Z,4.43
2022-12-22T05:36:15.747Z,4.57
2022-12-22T05:38:42.663Z,4.65
2022-12-22T05:41:09.447Z,4.52
2022-12-22T05:43:36.849Z,4.50
2022-12-22T05:46:04.511Z,4.61
2022-12-22T05:48:37.354Z,4.45
2022-12-22T05:51:06.961Z,4.45
2022-12-22T05:53:33.572Z,4.66
2022-12-22T05:56:00.184Z,4.50
2022-12-22T05:58:26.979Z,4.24
2022-12-22T06:00:56.962Z,4.34
2022-12-22T06:03:23.785Z,4.26
2022-12-22T06:05:50.741Z,4.41
2022-12-22T06:08:19.119Z,4.23
2022-12-22T06:10:46.131Z,4.41
2022-12-22T06:13:12.808Z,4.39
2022-12-22T06:15:39.539Z,4.28
2022-12-22T06:18:06.504Z,4.11
2022-12-22T06:20:33.342Z,4.21
2022-12-22T06:23:00.004Z,4.26
2022-12-22T06:25:28.143Z,4.38
2022-12-22T06:27:54.878Z,4.13
2022-12-22T06:30:25.779Z,4.41
2022-12-22T06:32:56.010Z,4.33
2022-12-22T06:35:22.710Z,4.31
2022-12-22T06:37:51.514Z,4.39
2022-12-22T06:40:18.244Z,4.47
2022-12-22T06:42:46.307Z,4.60
2022-12-22T06:45:13.185Z,4.56
2022-12-22T06:47:41.918Z,4.57
2022-12-22T06:50:16.564Z,4.57
2022-12-22T06:52:43.353Z,4.63
2022-12-22T06:55:10.098Z,4.42
2022-12-22T06:57:36.774Z,4.60
2022-12-22T07:00:06.238Z,4.55
2022-12-22T07:02:33.116Z,4.61
2022-12-22T07:04:59.986Z,4.58
2022-12-22T07:07:26.622Z,4.48
2022-12-22T07:09:53.350Z,4.66
2022-12-22T07:12:19.988Z,4.73
2022-12-22T07:14:46.687Z,4.78
2022-12-22T07:17:14.690Z,4.60
2022-12-22T07:19:41.439Z,4.64
2022-12-22T07:22:08.224Z,4.80
2022-12-22T07:24:35.019Z,4.69
2022-12-22T07:27:01.679Z,4.58
2022-12-22T07:29:28.351Z,4.81
2022-12-22T07:31:55.107Z,4.94
2022-12-22T07:34:23.092Z,4.84
2022-12-22T07:36:49.698Z,4.84
2022-12-22T07:39:16.277Z,4.68
2022-12-22T07:41:42.857Z,4.74
2022-12-22T07:44:09.530Z,4.97
2022-12-22T07:46:37.914Z,5.01
2022-12-22T07:49:05.621Z,4.93
2022-12-22T07:51:34.547Z,4.95
2022-12-22T07:54:01.528Z,4.82
2022-12-22T07:56:28.161Z,5.01
2022-12-22T07:58:54.767Z,5.10
2022-12-22T08:01:21.421Z,5.17
2022-12-22T08:03:49.180Z,5.22
2022-12-22T08:06:15.891Z,5.26
2022-12-22T08:08:44.005Z,5.24
2022-12-22T08:11:11.109Z,5.20
2022-12-22T08:13:37.899Z,5.43
2022-12-22T08:16:05.456Z,5.37
2022-12-22T08:18:32.960Z,5.49
2022-12-22T08:20:59.601Z,5.34
2022-12-22T08:23:26.263Z,5.56
2022-12-22T08:26:04.787Z,5.47
2022-12-22T08:28:35.659Z,5.74
2022-12-22T08:31:03.953Z,5.91
2022-12-22T08:33:30.923Z,5.98
2022-12-22T08:36:04.257Z,5.98
2022-12-22T08:38:35.000Z,5.97
2022-12-22T08:41:03.127Z,5.99
2022-12-22T08:43:31.378Z,5.96
2022-12-22T08:45:58.380Z,6.05
2022-12-22T08:48:25.092Z,6.14
2022-12-22T08:50:55.009Z,6.07
2022-12-22T08:54:02.538Z,6.02
2022-12-22T08:56:12.386Z,5.99
2022-12-22T08:58:39.052Z,5.98
2022-12-22T09:01:05.984Z,6.17
2022-12-22T09:03:32.759Z,6.36
2022-12-22T09:06:00.568Z,6.15
2022-12-22T09:08:27.168Z,6.40
2022-12-22T09:10:53.790Z,6.41
2022-12-22T09:13:21.840Z,6.34
2022-12-22T09:15:49.497Z,6.47
2022-12-22T09:18:16.099Z,6.55
2022-12-22T09:20:42.682Z,6.54
2022-12-22T09:23:09.256Z,6.62
2022-12-22T09:25:36.164Z,6.58
2022-12-22T09:28:04.929Z,6.56
2022-12-22T09:30:33.089Z,6.40
2022-12-22T09:32:59.764Z,6.34
2022-12-22T09:35:26.547Z,6.28
2022-12-22T09:37:55.895Z,6.17
2022-12-22T09:40:34.041Z,6.17
2022-12-22T09:43:10.177Z,6.32
2022-12-22T09:45:59.761Z,6.30
2022-12-22T09:48:32.554Z,6.35
2022-12-22T09:51:08.456Z,6.31
2022-12-22T09:54:13.917Z,6.40
2022-12-22T09:56:54.459Z,6.46
2022-12-22T09:59:31.491Z,6.49
2022-12-22T10:02:25.743Z,6.63
2022-12-22T10:05:16.585Z,6.45
2022-12-22T10:08:08.198Z,6.41
2022-12-22T10:10:51.627Z,6.67
2022-12-22T10:13:35.276Z,6.79
2022-12-22T10:16:33.887Z,6.85
2022-12-22T10:28:48.885Z,7.07
2022-12-22T10:31:22.322Z,7.03
2022-12-22T10:33:57.035Z,7.11
2022-12-22T10:36:52.251Z,7.06
2022-12-22T10:39:51.031Z,7.21
2022-12-22T10:42:33.254Z,7.12
2022-12-22T10:45:09.915Z,7.14
2022-12-22T10:48:02.076Z,7.12
2022-12-22T10:50:53.835Z,7.36
2022-12-22T10:54:03.432Z,7.25
2022-12-22T10:56:38.799Z,7.58
2022-12-22T10:59:25.635Z,7.71
2022-12-22T11:02:27.927Z,7.84
2022-12-22T11:05:11.363Z,7.88
2022-12-22T11:07:55.619Z,7.81
2022-12-22T11:10:36.463Z,7.77
2022-12-22T11:13:39.352Z,7.69
2022-12-22T11:16:20.786Z,7.54
2022-12-22T11:19:04.146Z,7.76
2022-12-22T11:21:45.861Z,7.83
2022-12-22T11:24:38.687Z,7.70
2022-12-22T11:27:44.055Z,7.80
2022-12-22T11:30:55.840Z,7.87
2022-12-22T11:33:40.165Z,7.75
2022-12-22T11:39:04.301Z,8.05
2022-12-22T11:41:56.546Z,8.01
2022-12-22T11:44:45.568Z,8.09
2022-12-22T11:47:21.367Z,8.09
2022-12-22T11:51:01.432Z,8.16
2022-12-22T11:53:28.936Z,8.25
2022-12-22T11:56:13.932Z,8.26
2022-12-22T11:58:52.952Z,8.19
2022-12-22T12:01:40.268Z,8.32
2022-12-22T12:04:20.903Z,8.31
2022-12-22T12:07:08.162Z,8.34
2022-12-22T12:09:47.079Z,8.17
2022-12-22T12:12:42.528Z,8.27
2022-12-22T12:15:23.493Z,8.43
2022-12-22T12:18:26.251Z,8.64
2022-12-22T12:21:08.200Z,8.96
2022-12-22T12:23:55.128Z,9.05
2022-12-22T12:26:25.800Z,9.23
2022-12-22T12:29:05.547Z,9.05
2022-12-22T12:31:39.991Z,8.56
2022-12-22T12:37:38.598Z,8.89
2022-12-22T12:40:29.619Z,8.78
2022-12-22T12:43:00.180Z,8.84
2022-12-22T12:45:35.805Z,9.01
2022-12-22T12:48:36.112Z,8.98
2022-12-22T12:51:23.199Z,8.99
2022-12-22T12:54:29.405Z,9.05
2022-12-22T12:57:14.289Z,9.28
2022-12-22T12:59:48.119Z,9.22
2022-12-22T13:02:36.391Z,9.29
2022-12-22T13:05:34.084Z,9.23
2022-12-22T13:08:21.851Z,9.16
2022-12-22T13:11:44.742Z,9.07
2022-12-22T13:14:07.792Z,9.12
2022-12-22T13:16:37.977Z,9.03
2022-12-22T13:19:23.962Z,9.13
2022-12-22T13:21:53.377Z,8.97
2022-12-22T13:24:26.431Z,9.11
2022-12-22T13:26:55.129Z,9.18
2022-12-22T13:29:41.100Z,9.23
2022-12-22T13:32:19.150Z,9.35
2022-12-22T13:35:28.516Z,9.25
2022-12-22T13:37:41.128Z,9.37
2022-12-22T13:40:12.414Z,9.32
2022-12-22T13:42:42.007Z,9.39
2022-12-22T13:45:16.107Z,9.36
2022-12-22T13:47:44.112Z,9.36
2022-12-22T13:50:18.004Z,9.39
2022-12-22T13:52:45.003Z,9.34
2022-12-22T13:55:15.893Z,9.32
2022-12-22T13:57:58.062Z,9.32
2022-12-22T14:00:41.942Z,9.16
2022-12-22T14:03:50.182Z,9.16
2022-12-22T14:06:19.553Z,9.25
2022-12-22T14:09:11.292Z,9.29
2022-12-22T14:11:38.520Z,9.40
2022-12-22T14:14:07.628Z,9.37
2022-12-22T14:16:53.984Z,9.33
2022-12-22T14:19:22.273Z,9.43
2022-12-22T14:22:03.802Z,9.36
2022-12-22T14:24:51.109Z,9.41
2022-12-22T14:27:30.805Z,9.49
2022-12-22T14:30:00.038Z,9.48
2022-12-22T14:32:40.208Z,9.57
2022-12-22T14:35:26.789Z,9.55
2022-12-22T14:37:55.654Z,9.50
2022-12-22T14:40:30.382Z,9.46
2022-12-22T14:42:58.561Z,9.56
2022-12-22T14:45:28.325Z,9.54
2022-12-22T14:47:57.012Z,9.51
2022-12-22T14:50:25.313Z,9.54
2022-12-22T14:52:54.495Z,9.51
2022-12-22T14:55:29.611Z,9.47
2022-12-22T14:58:00.375Z,9.48
2022-12-22T15:00:33.614Z,9.40
2022-12-22T15:03:03.935Z,9.34
2022-12-22T15:05:32.243Z,9.29
2022-12-22T15:08:09.005Z,9.31
2022-12-22T15:10:39.887Z,9.23
2022-12-22T15:13:12.213Z,9.27
2022-12-22T15:15:39.006Z,9.25
2022-12-22T15:18:13.443Z,9.06
2022-12-22T15:20:40.361Z,9.06
2022-12-22T15:23:12.298Z,8.91
2022-12-22T15:25:41.894Z,8.94
2022-12-22T15:28:08.511Z,8.99
2022-12-22T15:30:36.710Z,8.84
2022-12-22T15:33:03.703Z,8.87
2022-12-22T15:35:33.691Z,8.85
2022-12-22T15:38:01.140Z,8.82
2022-12-22T15:40:28.670Z,8.70
2022-12-22T15:42:56.537Z,8.81
2022-12-22T15:45:23.580Z,8.69
2022-12-22T15:47:53.262Z,8.79
2022-12-22T15:50:21.206Z,8.71
2022-12-22T15:52:53.220Z,8.58
2022-12-22T15:55:21.020Z,8.49
2022-12-22T15:57:50.853Z,8.56
2022-12-22T16:00:19.068Z,8.39
2022-12-22T16:02:49.135Z,8.42
2022-12-22T16:05:17.461Z,8.49
2022-12-22T16:07:45.454Z,8.49
2022-12-22T16:10:23.234Z,8.34
2022-12-22T16:12:50.152Z,8.32
2022-12-22T16:15:22.525Z,8.42
2022-12-22T16:17:51.995Z,8.34
2022-12-22T16:20:21.405Z,8.44
2022-12-22T16:22:50.066Z,8.24
2022-12-22T16:25:22.519Z,8.35
2022-12-22T16:27:51.514Z,8.34
2022-12-22T16:30:21.191Z,8.40
2022-12-22T16:32:48.360Z,8.30
2022-12-22T16:35:17.612Z,8.10
2022-12-22T16:37:46.453Z,8.22
2022-12-22T16:40:19.786Z,8.11
2022-12-22T16:45:45.653Z,8.15
2022-12-22T16:48:18.292Z,8.20
2022-12-22T16:50:48.408Z,8.28
2022-12-22T16:53:42.508Z,8.29
2022-12-22T16:56:20.643Z,8.26
2022-12-22T16:59:00.083Z,8.24
2022-12-22T17:01:34.680Z,8.33
2022-12-22T17:04:04.794Z,8.41
2022-12-22T17:06:32.061Z,8.47
2022-12-22T17:09:00.618Z,8.50
2022-12-22T17:11:39.979Z,8.43
2022-12-22T17:14:26.415Z,8.32
2022-12-22T17:17:02.305Z,8.24
2022-12-22T17:22:21.628Z,8.43
2022-12-22T17:25:06.673Z,8.42
2022-12-22T17:27:46.866Z,8.53
2022-12-22T17:30:21.511Z,8.27
2022-12-22T17:32:51.852Z,8.23
2022-12-22T17:35:31.866Z,8.15
2022-12-22T17:38:05.475Z,8.19
2022-12-22T17:43:41.937Z,8.34
2022-12-22T17:46:19.878Z,8.24
2022-12-22T17:49:01.391Z,8.46
2022-12-22T17:51:41.052Z,8.42
2022-12-22T17:57:04.446Z,8.37
2022-12-22T17:59:33.565Z,8.29
2022-12-22T18:02:25.440Z,8.19
2022-12-22T18:05:00.408Z,8.06
2022-12-22T18:07:46.142Z,8.19
2022-12-22T18:10:32.258Z,8.15
2022-12-22T18:16:18.430Z,8.07
2022-12-22T18:18:55.214Z,7.92
2022-12-22T18:21:24.406Z,7.94
2022-12-22T18:23:52.035Z,7.80
2022-12-22T18:26:26.738Z,7.73
2022-12-22T18:28:54.483Z,7.73
2022-12-22T18:31:33.880Z,7.72
2022-12-22T18:34:22.176Z,7.76
2022-12-22T18:36:49.096Z,7.77
2022-12-22T18:39:18.111Z,7.78
2022-12-22T18:41:53.012Z,7.78
2022-12-22T18:44:37.713Z,7.68
2022-12-22T18:47:12.002Z,7.51
2022-12-22T18:49:40.294Z,7.58
2022-12-22T18:52:20.497Z,7.58
2022-12-22T18:55:10.617Z,7.61
2022-12-22T18:57:37.487Z,7.76
2022-12-22T19:00:11.489Z,7.95
2022-12-22T19:02:41.051Z,7.81
2022-12-22T19:05:19.969Z,7.78
2022-12-22T19:07:47.564Z,7.80
2022-12-22T19:10:16.229Z,7.68
2022-12-22T19:12:43.354Z,7.37
2022-12-22T19:15:20.968Z,7.30
2022-12-22T19:17:50.090Z,7.26
2022-12-22T19:20:26.003Z,7.32
2022-12-22T19:22:57.978Z,7.21
2022-12-22T19:25:28.283Z,7.21
2022-12-22T19:27:57.823Z,7.15
2022-12-22T19:30:34.678Z,7.22
2022-12-22T19:33:06.798Z,7.37
2022-12-22T19:39:05.597Z,7.00
2022-12-22T19:41:43.045Z,7.19
2022-12-22T19:44:19.340Z,7.26
2022-12-22T19:46:47.550Z,7.44
2022-12-22T19:49:21.411Z,7.47
2022-12-22T19:51:58.747Z,7.46
2022-12-22T19:54:37.665Z,7.33
2022-12-22T19:57:11.224Z,7.05
2022-12-22T19:59:40.352Z,7.09
2022-12-22T20:02:24.801Z,6.78
2022-12-22T20:05:02.577Z,6.90
2022-12-22T20:07:36.028Z,6.92
2022-12-22T20:10:06.369Z,7.07
2022-12-22T20:12:35.134Z,7.21
2022-12-22T20:15:13.426Z,7.08
2022-12-22T20:17:44.049Z,6.72
2022-12-22T20:20:14.017Z,6.67
2022-12-22T20:22:46.938Z,6.68
2022-12-22T20:25:16.887Z,6.49
2022-12-22T20:27:44.252Z,6.75
2022-12-22T20:30:17.121Z,6.69
2022-12-22T20:32:53.358Z,6.67
2022-12-22T20:35:21.048Z,6.71
2022-12-22T20:37:51.387Z,6.69
2022-12-22T20:40:25.379Z,6.67
2022-12-22T20:42:52.496Z,6.60
2022-12-22T20:45:20.444Z,6.70
2022-12-22T20:47:48.020Z,6.78
2022-12-22T20:50:20.033Z,6.80
2022-12-22T20:52:47.471Z,6.85
2022-12-22T20:55:15.175Z,7.04
2022-12-22T20:57:43.488Z,7.24
2022-12-22T21:00:17.910Z,7.53
2022-12-22T21:02:56.644Z,7.70
2022-12-22T21:05:24.967Z,7.65
2022-12-22T21:07:57.188Z,7.55
2022-12-22T21:10:25.324Z,7.45
2022-12-22T21:12:56.371Z,7.31
2022-12-22T21:15:24.771Z,7.29
2022-12-22T21:17:58.231Z,7.20
2022-12-22T21:20:28.266Z,7.16
2022-12-22T21:22:55.051Z,6.81
2022-12-22T21:25:22.333Z,6.96
2022-12-22T21:27:52.938Z,7.15
2022-12-22T21:30:26.031Z,7.20
2022-12-22T21:33:05.348Z,7.23
2022-12-22T21:35:41.747Z,7.25
2022-12-22T21:38:19.008Z,7.02
2022-12-22T21:40:57.601Z,6.61
2022-12-22T21:43:27.269Z,6.34
2022-12-22T21:46:05.967Z,6.34
2022-12-22T21:48:35.997Z,6.06
2022-12-22T21:51:06.230Z,6.12
2022-12-22T21:53:33.036Z,5.88
2022-12-22T21:56:09.942Z,6.09
2022-12-22T21:58:36.745Z,6.13
2022-12-22T22:01:06.013Z,6.06
2022-12-22T22:03:42.176Z,6.14
2022-12-22T22:06:11.131Z,5.90
2022-12-22T22:08:37.797Z,5.80
2022-12-22T22:11:18.005Z,6.12
2022-12-22T22:13:44.944Z,6.51
2022-12-22T23:12:28.620Z,5.91
2022-12-22T23:15:01.191Z,6.03
2022-12-22T23:17:35.828Z,6.11
2022-12-22T23:20:08.979Z,5.78
2022-12-22T23:22:43.391Z,5.93
2022-12-22T23:25:15.836Z,5.86
2022-12-22T23:27:51.112Z,5.65
2022-12-22T23:30:30.685Z,5.94
2022-12-22T23:33:01.262Z,6.04
2022-12-22T23:35:38.096Z,5.91
2022-12-22T23:40:58.281Z,5.91
2022-12-22T23:43:29.613Z,5.84
2022-12-22T23:45:59.957Z,5.88
2022-12-22T23:51:08.526Z,5.56
2022-12-22T23:53:39.262Z,5.32
2022-12-22T23:56:09.781Z,5.32
2022-12-22T23:58:38.194Z,5.38
